Time;durP1;ratioP1;P1;durP2;ratioP2;P2;SDS_P1;SDS_P2;PMS_P1;PMS_P2;Temp;Humidity;BMP_temperature;BMP_pressure;BME280_temperature;BME280_humidity;BME280_pressure;Samples;Min_cycle;Max_cycle;Signal;HPM_P1;HPM_P2
2023/03/09 00:02:24;;;;;;;;;;;;;;;7.15;90.81;95618.50;5066537;28;19962;-57
2023/03/09 00:04:52;;;;;;;;;;;;;;;7.11;91.26;95620.28;5078833;28;19957;-57
2023/03/09 00:07:23;;;;;;;;;;;;;;;7.24;90.97;95615.63;5087948;28;20333;-57
2023/03/09 00:09:51;;;;;;;;;;;;;;;7.20;91.25;95612.84;5093145;28;19938;-57
2023/03/09 00:12:18;;;;;;;;;;;;;;;7.30;90.79;95611.56;5091082;28;19939;-57
2023/03/09 00:14:46;;;;;;;;;;;;;;;7.28;90.77;95617.28;5093390;28;19954;-57
2023/03/09 00:17:16;;;;;;;;;;;;;;;7.30;90.89;95615.03;5086300;28;19986;-58
2023/03/09 00:19:46;;;;;;;;;;;;;;;7.31;90.94;95615.81;5092761;28;19934;-57
2023/03/09 00:22:14;;;;;;;;;;;;;;;7.22;91.63;95607.88;5092425;28;19938;-57
2023/03/09 00:24:46;;;;;;;;;;;;;;;7.28;91.64;95609.19;5093520;28;19939;-58
2023/03/09 00:27:14;;;;;;;;;;;;;;;7.29;91.88;95596.47;5088425;28;19977;-57
2023/03/09 00:29:42;;;;;;;;;;;;;;;7.28;92.57;95603.78;5068267;28;20278;-57
2023/03/09 00:32:10;;;;;;;;;;;;;;;7.35;91.99;95592.41;5077895;28;19978;-58
2023/03/09 00:34:38;;;;;;;;;;;;;;;7.29;92.42;95586.44;5093901;28;19954;-57
2023/03/09 00:37:05;;;;;;;;;;;;;;;7.41;92.73;95569.41;5091396;28;20028;-57
2023/03/09 00:39:33;;;;;;;;;;;;;;;7.50;92.35;95569.22;5068876;28;19954;-57
2023/03/09 00:42:02;;;;;;;;;;;;;;;7.46;92.32;95563.72;5050423;28;19935;-57
2023/03/09 00:44:30;;;;;;;;;;;;;;;7.48;92.35;95563.38;5053303;28;19939;-58
2023/03/09 00:46:58;;;;;;;;;;;;;;;7.53;91.97;95563.13;5049185;28;19955;-57
2023/03/09 00:49:26;;;;;;;;;;;;;;;7.52;92.57;95553.44;5071689;28;19943;-57
2023/03/09 00:51:54;;;;;;;;;;;;;;;7.56;92.26;95551.59;5052278;28;19939;-58
2023/03/09 00:54:21;;;;;;;;;;;;;;;7.49;92.92;95541.41;5054548;28;19949;-58
2023/03/09 00:56:49;;;;;;;;;;;;;;;7.54;92.76;95541.16;5080177;28;19955;-59
2023/03/09 00:59:18;;;;;;;;;;;;;;;7.54;92.54;95526.84;5049368;28;19946;-59
2023/03/09 01:01:46;;;;;;;;;;;;;;;7.59;92.45;95535.47;5063477;28;19928;-58
2023/03/09 01:04:14;;;;;;;;;;;;;;;7.55;92.80;95531.13;5075202;28;19959;-57
2023/03/09 01:06:42;;;;;;;;;;;;;;;7.69;92.34;95531.47;5071904;28;19946;-57
2023/03/09 01:09:10;;;;;;;;;;;;;;;7.64;92.30;95539.84;5073660;28;20391;-57
2023/03/09 01:11:38;;;;;;;;;;;;;;;7.75;91.88;95542.78;5081316;28;20369;-57
2023/03/09 01:14:06;;;;;;;;;;;;;;;7.66;92.10;95529.47;5084739;28;19939;-57
2023/03/09 01:16:35;;;;;;;;;;;;;;;7.65;93.00;95508.97;5077220;28;19955;-57
2023/03/09 01:19:06;;;;;;;;;;;;;;;7.71;93.61;95526.50;5088952;28;19947;-57
2023/03/09 01:21:36;;;;;;;;;;;;;;;7.61;93.95;95511.59;5091594;28;20403;-57
2023/03/09 01:24:04;;;;;;;;;;;;;;;7.64;94.40;95504.72;5089446;28;19942;-62
2023/03/09 01:26:32;;;;;;;;;;;;;;;7.71;93.91;95510.28;5088582;28;19932;-58
2023/03/09 01:29:01;;;;;;;;;;;;;;;7.66;94.09;95502.44;5082331;28;19931;-57
2023/03/09 01:31:29;;;;;;;;;;;;;;;7.65;94.53;95513.59;5071686;28;20413;-57
2023/03/09 01:33:58;;;;;;;;;;;;;;;7.69;94.13;95522.59;5092837;28;20331;-57
2023/03/09 01:36:26;;;;;;;;;;;;;;;7.79;94.14;95528.22;5085871;28;19958;-57
2023/03/09 01:38:54;;;;;;;;;;;;;;;7.77;94.35;95535.09;5096769;28;19962;-57
2023/03/09 01:41:26;;;;;;;;;;;;;;;7.66;95.72;95525.97;5106556;28;19934;-57
2023/03/09 01:43:55;;;;;;;;;;;;;;;7.66;96.56;95521.34;5088943;28;19944;-57
2023/03/09 01:46:37;;;;;;;;;;;;;;;7.66;96.20;95529.47;5074545;28;20446;-57
2023/03/09 01:49:09;;;;;;;;;;;;;;;7.69;96.02;95536.09;5076367;28;19931;-57
2023/03/09 01:51:38;;;;;;;;;;;;;;;7.90;95.92;95528.47;5091383;28;20003;-57
2023/03/09 01:54:06;;;;;;;;;;;;;;;7.85;95.19;95534.16;5103987;28;20311;-57
2023/03/09 01:56:34;;;;;;;;;;;;;;;7.84;95.23;95529.88;5106982;28;19950;-57
2023/03/09 01:59:02;;;;;;;;;;;;;;;7.93;94.65;95521.56;5099323;28;19952;-60
2023/03/09 02:01:30;;;;;;;;;;;;;;;8.12;93.76;95486.47;5076703;28;20419;-57
2023/03/09 02:04:00;;;;;;;;;;;;;;;8.25;91.78;95484.41;5106822;28;19930;-58
2023/03/09 02:06:30;;;;;;;;;;;;;;;8.31;90.48;95489.19;5110780;28;19958;-57
2023/03/09 02:09:00;;;;;;;;;;;;;;;8.37;89.52;95476.97;5108891;28;19942;-57
2023/03/09 02:11:31;;;;;;;;;;;;;;;8.28;89.68;95479.06;5102742;28;19942;-59
2023/03/09 02:14:00;;;;;;;;;;;;;;;8.29;90.11;95480.63;5103299;28;19950;-57
2023/03/09 02:16:28;;;;;;;;;;;;;;;8.47;87.52;95485.66;5087450;28;19970;-57
2023/03/09 02:18:55;;;;;;;;;;;;;;;8.50;86.85;95474.13;5077804;28;19998;-57
2023/03/09 02:21:27;;;;;;;;;;;;;;;8.49;86.73;95475.25;5107013;28;19924;-57
2023/03/09 02:23:57;;;;;;;;;;;;;;;8.57;85.70;95483.16;5084602;28;20281;-58
2023/03/09 02:26:26;;;;;;;;;;;;;;;8.52;86.06;95478.03;5082220;28;20361;-57
2023/03/09 02:28:55;;;;;;;;;;;;;;;8.44;86.01;95475.53;5085040;28;19969;-57
2023/03/09 02:31:24;;;;;;;;;;;;;;;8.55;85.10;95477.31;5081638;28;19950;-58
2023/03/09 02:33:53;;;;;;;;;;;;;;;8.66;84.14;95478.31;5086750;28;19949;-57
2023/03/09 02:36:23;;;;;;;;;;;;;;;8.62;83.94;95479.38;5087935;28;19955;-57
2023/03/09 02:38:56;;;;;;;;;;;;;;;8.52;84.61;95488.06;5090154;28;20009;-57
2023/03/09 02:41:25;;;;;;;;;;;;;;;8.62;84.04;95479.38;5091236;28;19928;-57
2023/03/09 02:43:53;;;;;;;;;;;;;;;8.65;83.92;95495.69;5089401;28;19971;-57
2023/03/09 02:46:23;;;;;;;;;;;;;;;8.63;83.58;95486.38;5083440;28;19931;-57
2023/03/09 02:48:50;;;;;;;;;;;;;;;8.57;84.07;95485.06;5082853;28;19923;-57
2023/03/09 02:51:18;;;;;;;;;;;;;;;8.50;84.72;95495.75;5086250;28;19965;-57
2023/03/09 02:53:47;;;;;;;;;;;;;;;8.63;84.40;95503.41;5087129;28;19977;-57
2023/03/09 02:56:14;;;;;;;;;;;;;;;8.64;84.44;95506.88;5100175;28;19931;-57
2023/03/09 02:58:42;;;;;;;;;;;;;;;8.68;84.72;95513.13;5074855;28;19932;-59
2023/03/09 03:01:10;;;;;;;;;;;;;;;8.61;85.28;95516.47;5078897;28;20442;-57
2023/03/09 03:03:39;;;;;;;;;;;;;;;8.63;85.53;95521.56;5089665;28;19976;-57
2023/03/09 03:06:07;;;;;;;;;;;;;;;8.61;85.55;95519.19;5070172;28;19932;-57
2023/03/09 03:08:36;;;;;;;;;;;;;;;8.58;86.02;95524.56;5088447;28;19924;-57
2023/03/09 03:11:08;;;;;;;;;;;;;;;8.57;86.44;95522.97;5074235;28;19963;-57
2023/03/09 03:13:39;;;;;;;;;;;;;;;8.53;86.86;95511.31;5087566;28;20307;-57
2023/03/09 03:16:09;;;;;;;;;;;;;;;8.51;86.95;95511.63;5067559;28;19971;-57
2023/03/09 03:18:37;;;;;;;;;;;;;;;8.43;87.41;95511.88;5089886;28;19974;-58
2023/03/09 03:21:09;;;;;;;;;;;;;;;8.46;87.45;95511.13;5096538;28;19935;-57
2023/03/09 03:23:40;;;;;;;;;;;;;;;8.50;87.48;95506.59;5078313;28;19943;-58
2023/03/09 03:26:09;;;;;;;;;;;;;;;8.54;87.36;95526.41;5081256;28;20285;-57
2023/03/09 03:28:40;;;;;;;;;;;;;;;8.48;87.05;95517.00;5081418;28;20437;-58
2023/03/09 03:31:16;;;;;;;;;;;;;;;8.40;87.73;95521.47;5071544;28;19924;-58
2023/03/09 03:33:44;;;;;;;;;;;;;;;8.39;87.85;95526.09;5084763;28;19928;-59
2023/03/09 03:36:13;;;;;;;;;;;;;;;8.59;86.55;95526.09;5080581;28;19928;-57
2023/03/09 03:38:45;;;;;;;;;;;;;;;8.58;86.44;95527.25;5093816;28;19967;-58
2023/03/09 03:41:14;;;;;;;;;;;;;;;8.59;86.60;95526.88;5078316;28;19925;-60
2023/03/09 03:43:44;;;;;;;;;;;;;;;8.49;86.85;95526.69;5090456;28;19962;-59
2023/03/09 03:46:14;;;;;;;;;;;;;;;8.78;85.73;95531.50;5088499;28;19924;-57
2023/03/09 03:48:43;;;;;;;;;;;;;;;8.66;86.03;95528.94;5105015;28;19924;-59
2023/03/09 03:51:13;;;;;;;;;;;;;;;8.66;86.48;95531.66;5079663;28;19958;-57
2023/03/09 03:53:45;;;;;;;;;;;;;;;8.55;87.24;95525.25;5089631;28;20435;-58
2023/03/09 03:56:13;;;;;;;;;;;;;;;8.60;87.23;95535.78;5090613;28;19924;-58
2023/03/09 03:58:43;;;;;;;;;;;;;;;8.66;87.29;95539.78;5073260;28;19924;-60
2023/03/09 04:01:14;;;;;;;;;;;;;;;8.66;87.40;95542.47;5073284;28;20424;-57
2023/03/09 04:03:41;;;;;;;;;;;;;;;8.78;86.94;95545.03;5090670;28;19979;-57
2023/03/09 04:06:09;;;;;;;;;;;;;;;8.79;86.88;95551.22;5091412;28;20332;-57
2023/03/09 04:08:41;;;;;;;;;;;;;;;8.73;87.32;95553.44;5085895;28;19924;-58
2023/03/09 04:11:09;;;;;;;;;;;;;;;8.75;87.47;95548.47;5098738;28;19932;-57
2023/03/09 04:13:42;;;;;;;;;;;;;;;8.73;87.60;95569.69;5076021;28;20290;-58
2023/03/09 04:16:10;;;;;;;;;;;;;;;8.74;87.78;95576.69;5077163;28;19925;-57
2023/03/09 04:18:38;;;;;;;;;;;;;;;8.63;88.06;95575.69;5079640;28;19968;-57
2023/03/09 04:21:06;;;;;;;;;;;;;;;8.64;88.26;95583.44;5091798;28;20415;-60
2023/03/09 04:23:33;;;;;;;;;;;;;;;8.68;88.55;95588.13;5087691;28;19935;-58
2023/03/09 04:26:05;;;;;;;;;;;;;;;8.64;88.58;95590.78;5094616;28;19934;-57
2023/03/09 04:28:43;;;;;;;;;;;;;;;8.63;89.07;95597.34;5091173;28;19928;-58
2023/03/09 04:31:16;;;;;;;;;;;;;;;8.59;89.45;95602.66;5087849;28;20472;-61
2023/03/09 04:33:44;;;;;;;;;;;;;;;8.63;88.92;95608.16;5079846;28;19924;-58
2023/03/09 04:36:15;;;;;;;;;;;;;;;8.56;89.47;95610.69;5082815;28;19924;-57
2023/03/09 04:38:46;;;;;;;;;;;;;;;8.62;88.84;95633.66;5079379;28;19924;-59
2023/03/09 04:41:16;;;;;;;;;;;;;;;8.65;88.86;95638.34;5091319;28;19924;-57
2023/03/09 04:43:50;;;;;;;;;;;;;;;8.57;89.15;95644.75;5087688;28;19924;-58
2023/03/09 04:46:19;;;;;;;;;;;;;;;8.54;89.48;95643.53;5084354;28;19967;-57
2023/03/09 04:48:50;;;;;;;;;;;;;;;8.52;89.92;95666.66;5083445;28;19955;-58
2023/03/09 04:51:18;;;;;;;;;;;;;;;8.55;89.60;95677.59;5074200;28;19928;-58
2023/03/09 04:53:47;;;;;;;;;;;;;;;8.54;89.73;95673.31;5074030;28;19924;-58
2023/03/09 04:56:21;;;;;;;;;;;;;;;8.51;87.13;95681.34;5075338;28;19925;-57
2023/03/09 04:58:55;;;;;;;;;;;;;;;8.48;86.24;95671.22;5074324;28;19924;-57
2023/03/09 05:01:25;;;;;;;;;;;;;;;8.49;86.34;95689.03;5077252;28;19931;-57
2023/03/09 05:03:55;;;;;;;;;;;;;;;8.49;86.12;95699.84;5081448;28;19924;-58
2023/03/09 05:06:29;;;;;;;;;;;;;;;8.47;86.17;95707.53;5074476;28;19924;-57
2023/03/09 05:09:02;;;;;;;;;;;;;;;8.48;85.71;95709.13;5076302;28;20408;-58
2023/03/09 05:11:33;;;;;;;;;;;;;;;8.40;85.61;95697.31;5072168;28;19929;-59
2023/03/09 05:14:03;;;;;;;;;;;;;;;8.47;84.43;95719.16;5082820;28;19978;-57
2023/03/09 05:16:32;;;;;;;;;;;;;;;8.50;83.75;95723.06;5080386;28;19928;-58
2023/03/09 05:19:00;;;;;;;;;;;;;;;8.51;82.61;95725.41;5086432;28;19939;-58
2023/03/09 05:21:35;;;;;;;;;;;;;;;8.48;82.72;95736.19;5092540;28;20693;-58
2023/03/09 05:24:06;;;;;;;;;;;;;;;8.48;82.11;95747.78;5088059;28;19928;-58
2023/03/09 05:26:36;;;;;;;;;;;;;;;8.46;82.43;95746.56;5090180;28;19923;-58
2023/03/09 05:29:05;;;;;;;;;;;;;;;8.46;82.24;95754.66;5094652;28;19924;-57
2023/03/09 05:31:36;;;;;;;;;;;;;;;8.55;82.03;95780.41;5095452;28;19928;-58
2023/03/09 05:34:04;;;;;;;;;;;;;;;8.52;82.01;95780.31;5099301;28;19959;-57
2023/03/09 05:36:32;;;;;;;;;;;;;;;8.63;81.08;95793.00;5073725;28;19925;-61
2023/03/09 05:39:07;;;;;;;;;;;;;;;8.61;81.50;95789.84;5094895;28;20301;-57
2023/03/09 05:41:35;;;;;;;;;;;;;;;8.61;81.16;95813.41;5076840;28;19932;-57
2023/03/09 05:44:11;;;;;;;;;;;;;;;8.56;81.45;95813.69;5083328;28;19939;-57
2023/03/09 05:46:39;;;;;;;;;;;;;;;8.59;81.53;95824.59;5075236;28;19954;-58
2023/03/09 05:49:07;;;;;;;;;;;;;;;8.63;81.18;95832.81;5080747;28;19925;-57
2023/03/09 05:51:34;;;;;;;;;;;;;;;8.65;81.22;95844.06;5095676;28;19935;-58
2023/03/09 05:54:03;;;;;;;;;;;;;;;8.71;80.56;95848.09;5075291;28;20688;-57
2023/03/09 05:56:34;;;;;;;;;;;;;;;8.65;80.74;95854.91;5080307;28;19985;-58
2023/03/09 05:59:04;;;;;;;;;;;;;;;8.62;80.79;95850.97;5097325;28;19925;-58
2023/03/09 06:01:34;;;;;;;;;;;;;;;8.61;80.68;95848.59;5070826;28;19969;-58
2023/03/09 06:04:13;;;;;;;;;;;;;;;8.70;80.56;95868.19;5078751;28;21048;-58
2023/03/09 06:06:44;;;;;;;;;;;;;;;8.63;81.49;95873.44;5079532;28;20377;-58
2023/03/09 06:09:13;;;;;;;;;;;;;;;8.66;81.53;95883.53;5083404;28;20296;-58
2023/03/09 06:11:41;;;;;;;;;;;;;;;8.65;81.07;95890.09;5080631;28;19950;-57
2023/03/09 06:14:09;;;;;;;;;;;;;;;8.66;81.41;95889.72;5083160;28;19935;-58
2023/03/09 06:16:42;;;;;;;;;;;;;;;8.61;81.84;95897.31;5075188;28;19928;-59
2023/03/09 06:19:13;;;;;;;;;;;;;;;8.71;82.06;95898.75;5072734;28;19932;-58
2023/03/09 06:21:42;;;;;;;;;;;;;;;8.65;82.22;95906.34;5096119;28;19924;-58
2023/03/09 06:24:10;;;;;;;;;;;;;;;8.62;82.29;95915.91;5095254;28;19924;-58
2023/03/09 06:26:38;;;;;;;;;;;;;;;8.66;81.71;95922.22;5090553;28;20293;-58
2023/03/09 06:29:10;;;;;;;;;;;;;;;8.69;81.65;95920.75;5085995;28;19924;-57
2023/03/09 06:31:44;;;;;;;;;;;;;;;8.69;81.88;95928.09;5080678;28;19967;-58
2023/03/09 06:34:11;;;;;;;;;;;;;;;8.70;81.95;95933.16;5100621;28;19931;-58
2023/03/09 06:36:39;;;;;;;;;;;;;;;8.64;82.07;95940.75;5079593;28;19974;-58
2023/03/09 06:39:09;;;;;;;;;;;;;;;8.68;81.92;95951.63;5081795;28;19924;-58
2023/03/09 06:41:39;;;;;;;;;;;;;;;8.68;81.88;95961.69;5084043;28;19970;-58
2023/03/09 06:44:19;;;;;;;;;;;;;;;8.63;82.07;95960.03;5076528;28;19931;-57
2023/03/09 06:46:49;;;;;;;;;;;;;;;8.74;81.29;95974.66;5084806;28;19980;-58
2023/03/09 06:49:19;;;;;;;;;;;;;;;8.79;80.98;95979.81;5084546;28;19930;-57
2023/03/09 06:51:48;;;;;;;;;;;;;;;8.78;81.04;95989.03;5103334;28;19924;-57
2023/03/09 06:54:16;;;;;;;;;;;;;;;8.81;80.71;96001.91;5086163;28;20311;-57
2023/03/09 06:56:51;;;;;;;;;;;;;;;8.87;80.34;96008.63;5081921;28;20004;-57
2023/03/09 06:59:20;;;;;;;;;;;;;;;8.90;79.77;96010.66;5086013;28;19924;-55
2023/03/09 07:01:50;;;;;;;;;;;;;;;8.97;79.57;96014.69;5086680;28;20030;-56
2023/03/09 07:04:18;;;;;;;;;;;;;;;9.00;79.60;96027.53;5097517;28;20441;-55
2023/03/09 07:06:46;;;;;;;;;;;;;;;9.12;78.79;96027.47;5089665;28;19923;-55
2023/03/09 07:09:13;;;;;;;;;;;;;;;9.13;78.93;96037.97;5083392;28;19931;-55
2023/03/09 07:11:41;;;;;;;;;;;;;;;9.27;77.85;96042.16;5098607;28;19931;-56
2023/03/09 07:14:09;;;;;;;;;;;;;;;9.29;77.74;96053.44;5102523;28;19976;-55
2023/03/09 07:16:37;;;;;;;;;;;;;;;9.31;77.28;96059.31;5094146;28;19923;-56
2023/03/09 07:19:06;;;;;;;;;;;;;;;9.16;77.97;96075.22;5098475;28;20376;-55
2023/03/09 07:21:35;;;;;;;;;;;;;;;9.16;77.30;96077.91;5100097;28;19942;-56
2023/03/09 07:24:03;;;;;;;;;;;;;;;9.19;77.46;96085.34;5101872;28;19973;-55
2023/03/09 07:26:31;;;;;;;;;;;;;;;9.19;77.51;96098.09;5102398;28;19993;-55
2023/03/09 07:28:59;;;;;;;;;;;;;;;9.26;76.21;96100.19;5105794;28;19936;-56
2023/03/09 07:31:29;;;;;;;;;;;;;;;9.28;76.17;96106.06;5096012;28;19924;-56
2023/03/09 07:33:57;;;;;;;;;;;;;;;9.34;75.86;96112.81;5099961;28;20331;-56
2023/03/09 07:36:26;;;;;;;;;;;;;;;9.33;74.95;96116.66;5105266;28;20287;-55
2023/03/09 07:38:56;;;;;;;;;;;;;;;9.36;74.76;96124.09;5099811;28;19962;-56
2023/03/09 07:41:24;;;;;;;;;;;;;;;9.32;75.01;96126.72;5095934;28;20304;-56
2023/03/09 07:43:52;;;;;;;;;;;;;;;9.48;74.56;96139.50;5103766;28;19986;-55
2023/03/09 07:46:22;;;;;;;;;;;;;;;9.48;74.13;96137.59;5082416;28;20437;-55
2023/03/09 07:48:50;;;;;;;;;;;;;;;9.45;74.41;96155.31;5098024;28;20418;-56
2023/03/09 07:51:18;;;;;;;;;;;;;;;9.43;74.22;96148.69;5103713;28;20388;-55
2023/03/09 07:53:47;;;;;;;;;;;;;;;9.39;73.97;96154.00;5104324;28;19935;-56
2023/03/09 07:56:15;;;;;;;;;;;;;;;9.35;73.46;96153.13;5113978;28;20304;-55
2023/03/09 07:58:44;;;;;;;;;;;;;;;9.34;73.58;96167.03;5089085;28;19935;-55
2023/03/09 08:01:16;;;;;;;;;;;;;;;9.36;73.50;96165.53;5096866;28;19968;-55
2023/03/09 08:03:44;;;;;;;;;;;;;;;9.38;73.69;96173.34;5108080;28;19958;-55
2023/03/09 08:06:12;;;;;;;;;;;;;;;9.45;73.06;96174.31;5090739;28;19928;-55
2023/03/09 08:08:40;;;;;;;;;;;;;;;9.55;72.74;96188.50;5101523;28;19945;-55
2023/03/09 08:11:09;;;;;;;;;;;;;;;9.55;72.45;96189.28;5102994;28;19932;-59
2023/03/09 08:13:37;;;;;;;;;;;;;;;9.63;72.00;96187.53;5095374;28;19935;-56
2023/03/09 08:16:06;;;;;;;;;;;;;;;9.55;72.29;96200.13;5105608;28;19977;-56
2023/03/09 08:18:34;;;;;;;;;;;;;;;9.52;73.03;96194.59;5103602;28;19927;-56
2023/03/09 08:21:05;;;;;;;;;;;;;;;9.53;71.84;96207.00;5111841;28;19931;-56
2023/03/09 08:23:34;;;;;;;;;;;;;;;9.51;72.11;96209.28;5112696;28;19927;-56
2023/03/09 08:26:01;;;;;;;;;;;;;;;9.48;72.13;96213.50;5112821;28;19931;-59
2023/03/09 08:28:31;;;;;;;;;;;;;;;9.44;72.79;96216.09;5106735;28;19931;-55
2023/03/09 08:30:59;;;;;;;;;;;;;;;9.36;73.32;96213.53;5098525;28;19928;-58
2023/03/09 08:33:26;;;;;;;;;;;;;;;9.28;74.19;96220.69;5108823;28;19927;-55
2023/03/09 08:35:54;;;;;;;;;;;;;;;9.24;75.15;96224.41;5110938;28;19923;-58
2023/03/09 08:38:22;;;;;;;;;;;;;;;9.23;75.04;96226.34;5111428;28;19931;-56
2023/03/09 08:40:50;;;;;;;;;;;;;;;9.28;74.76;96226.09;5113580;28;20011;-56
2023/03/09 08:43:18;;;;;;;;;;;;;;;9.30;75.00;96231.94;5094227;28;19924;-56
2023/03/09 08:45:47;;;;;;;;;;;;;;;9.32;75.17;96235.13;5107575;28;19961;-55
2023/03/09 08:48:15;;;;;;;;;;;;;;;9.41;75.36;96235.75;5106464;28;19927;-55
2023/03/09 08:50:43;;;;;;;;;;;;;;;9.44;75.42;96240.50;5110092;28;21342;-56
2023/03/09 08:53:11;;;;;;;;;;;;;;;9.43;75.40;96249.75;5111001;28;19974;-57
2023/03/09 08:55:39;;;;;;;;;;;;;;;9.63;75.32;96245.25;5100071;28;19963;-55
2023/03/09 08:58:07;;;;;;;;;;;;;;;9.59;74.72;96252.53;5102499;28;19937;-56
2023/03/09 09:00:36;;;;;;;;;;;;;;;9.63;74.38;96249.91;5102543;28;20389;-57
2023/03/09 09:03:05;;;;;;;;;;;;;;;9.61;74.67;96268.44;5103493;28;19928;-55
2023/03/09 09:05:34;;;;;;;;;;;;;;;9.59;74.48;96271.50;5111825;28;19959;-55
2023/03/09 09:08:05;;;;;;;;;;;;;;;9.63;74.68;96271.59;5102263;28;20548;-55
2023/03/09 09:10:34;;;;;;;;;;;;;;;9.61;74.35;96282.00;5105394;28;19982;-56
2023/03/09 09:13:03;;;;;;;;;;;;;;;9.68;74.34;96284.91;5096963;28;19962;-61
2023/03/09 09:15:31;;;;;;;;;;;;;;;9.79;73.55;96280.56;5101486;28;19930;-60
2023/03/09 09:18:01;;;;;;;;;;;;;;;9.84;73.42;96285.75;5107031;28;19924;-65
2023/03/09 09:20:30;;;;;;;;;;;;;;;9.84;72.48;96282.25;5112024;28;19938;-55
2023/03/09 09:22:58;;;;;;;;;;;;;;;9.81;72.41;96300.00;5085249;28;19935;-57
2023/03/09 09:25:26;;;;;;;;;;;;;;;9.86;72.11;96286.19;5107022;28;19954;-55
2023/03/09 09:27:54;;;;;;;;;;;;;;;9.85;71.67;96300.88;5112035;28;19945;-56
2023/03/09 09:30:22;;;;;;;;;;;;;;;9.88;72.00;96289.34;5103678;28;20234;-68
2023/03/09 09:32:50;;;;;;;;;;;;;;;9.89;71.86;96301.78;5104184;28;20373;-58
2023/03/09 09:35:18;;;;;;;;;;;;;;;9.97;71.89;96303.56;5111204;28;19939;-60
2023/03/09 09:37:47;;;;;;;;;;;;;;;10.06;71.45;96295.25;5109870;28;19942;-55
2023/03/09 09:40:15;;;;;;;;;;;;;;;10.09;70.93;96297.28;5114306;28;19930;-58
2023/03/09 09:42:43;;;;;;;;;;;;;;;10.06;71.65;96299.88;5088876;28;19928;-56
2023/03/09 09:45:28;;;;;;;;;;;;;;;10.11;71.96;96311.28;5091317;28;19924;-57
2023/03/09 09:47:57;;;;;;;;;;;;;;;10.13;71.12;96317.16;5086379;28;20012;-62
2023/03/09 09:50:39;;;;;;;;;;;;;;;10.06;70.54;96327.00;5072807;28;20396;-55
2023/03/09 09:53:09;;;;;;;;;;;;;;;10.03;70.66;96333.94;5079598;28;19950;-55
2023/03/09 09:55:38;;;;;;;;;;;;;;;10.05;70.30;96325.44;5087699;28;20063;-61
2023/03/09 09:58:10;;;;;;;;;;;;;;;10.05;70.70;96326.22;5073480;28;20366;-55
2023/03/09 10:00:41;;;;;;;;;;;;;;;10.15;70.22;96324.94;5083696;28;19996;-55
2023/03/09 10:03:10;;;;;;;;;;;;;;;10.19;69.96;96329.34;5080490;28;20006;-55
2023/03/09 10:05:40;;;;;;;;;;;;;;;10.07;70.53;96340.25;5087401;28;19939;-55
2023/03/09 10:08:16;;;;;;;;;;;;;;;10.09;70.92;96332.53;5079154;28;19935;-55
2023/03/09 10:10:44;;;;;;;;;;;;;;;10.26;70.38;96331.47;5087008;28;19958;-56
2023/03/09 10:13:14;;;;;;;;;;;;;;;10.28;70.60;96333.84;5085800;28;19935;-56
2023/03/09 10:15:42;;;;;;;;;;;;;;;10.31;69.98;96338.56;5077227;28;19931;-57
2023/03/09 10:18:11;;;;;;;;;;;;;;;10.32;70.34;96340.94;5083268;28;19928;-55
2023/03/09 10:20:40;;;;;;;;;;;;;;;10.26;70.50;96347.75;5074152;28;19951;-58
2023/03/09 10:23:13;;;;;;;;;;;;;;;10.23;70.06;96349.25;5077432;28;20270;-55
2023/03/09 10:25:42;;;;;;;;;;;;;;;10.22;70.29;96352.25;5082870;28;19953;-55
2023/03/09 10:28:11;;;;;;;;;;;;;;;10.23;70.71;96348.44;5077380;28;20280;-61
2023/03/09 10:30:40;;;;;;;;;;;;;;;10.23;70.66;96359.28;5072802;28;19967;-58
2023/03/09 10:33:11;;;;;;;;;;;;;;;10.22;71.24;96365.84;5080779;28;20474;-58
2023/03/09 10:35:41;;;;;;;;;;;;;;;10.21;71.96;96361.53;5083250;28;20369;-57
2023/03/09 10:38:11;;;;;;;;;;;;;;;10.24;72.05;96371.75;5076515;28;19932;-55
2023/03/09 10:40:44;;;;;;;;;;;;;;;10.19;72.70;96374.69;5090428;28;19954;-59
2023/03/09 10:43:13;;;;;;;;;;;;;;;10.14;73.40;96372.22;5084486;28;19924;-55
2023/03/09 10:45:41;;;;;;;;;;;;;;;10.15;73.77;96373.78;5082922;28;19962;-55
2023/03/09 10:48:09;;;;;;;;;;;;;;;10.17;73.90;96382.38;5083070;28;19950;-55
2023/03/09 10:50:37;;;;;;;;;;;;;;;10.15;74.31;96385.44;5079698;28;19963;-55
2023/03/09 10:53:15;;;;;;;;;;;;;;;10.08;74.13;96376.31;5082375;28;20299;-55
2023/03/09 10:55:47;;;;;;;;;;;;;;;10.08;74.31;96373.59;5074315;28;19975;-55
2023/03/09 10:58:28;;;;;;;;;;;;;;;10.10;74.75;96379.47;5087008;28;20282;-55
2023/03/09 11:01:01;;;;;;;;;;;;;;;10.11;74.38;96383.75;5080045;28;19970;-56
2023/03/09 11:03:33;;;;;;;;;;;;;;;10.10;74.28;96401.16;5082863;28;19928;-55
2023/03/09 11:06:09;;;;;;;;;;;;;;;10.02;74.85;96392.06;5081954;28;20529;-55
2023/03/09 11:08:36;;;;;;;;;;;;;;;10.15;73.73;96388.16;5079373;28;19959;-55
2023/03/09 11:11:26;;;;;;;;;;;;;;;10.30;74.07;96392.06;5075699;28;20339;-55
2023/03/09 11:13:54;;;;;;;;;;;;;;;10.44;72.70;96394.41;5084357;28;19947;-55
2023/03/09 11:16:23;;;;;;;;;;;;;;;10.52;72.55;96398.09;5078972;28;19930;-56
2023/03/09 11:18:56;;;;;;;;;;;;;;;10.53;72.49;96391.50;5078121;28;19931;-55
2023/03/09 11:21:24;;;;;;;;;;;;;;;10.58;72.37;96407.56;5089681;28;19924;-55
2023/03/09 11:23:53;;;;;;;;;;;;;;;10.60;71.75;96400.66;5087484;28;19928;-55
2023/03/09 11:26:23;;;;;;;;;;;;;;;10.67;71.49;96405.47;5077571;28;19942;-55
2023/03/09 11:28:55;;;;;;;;;;;;;;;10.67;70.92;96403.53;5072282;28;20388;-57
2023/03/09 11:31:23;;;;;;;;;;;;;;;10.77;71.29;96404.19;5082710;28;19996;-55
2023/03/09 11:33:52;;;;;;;;;;;;;;;10.71;70.64;96412.59;5082553;28;19925;-55
2023/03/09 11:36:20;;;;;;;;;;;;;;;10.68;70.56;96401.63;5090459;28;19928;-58
2023/03/09 11:38:48;;;;;;;;;;;;;;;10.63;71.10;96401.88;5093492;28;19965;-55
2023/03/09 11:41:19;;;;;;;;;;;;;;;10.68;70.84;96415.97;5076564;28;19932;-56
2023/03/09 11:43:47;;;;;;;;;;;;;;;10.72;71.16;96416.09;5091281;28;19946;-57
2023/03/09 11:46:16;;;;;;;;;;;;;;;10.79;70.07;96413.53;5084361;28;19924;-55
2023/03/09 11:48:48;;;;;;;;;;;;;;;10.92;70.06;96414.25;5077218;28;19924;-56
2023/03/09 11:51:17;;;;;;;;;;;;;;;10.96;68.63;96405.03;5084044;28;20020;-55
2023/03/09 11:53:46;;;;;;;;;;;;;;;11.13;68.57;96419.44;5076797;28;19931;-56
2023/03/09 11:56:17;;;;;;;;;;;;;;;11.09;68.32;96413.13;5082048;28;19981;-55
2023/03/09 11:58:48;;;;;;;;;;;;;;;10.96;67.10;96426.78;5089463;28;19932;-55
2023/03/09 12:01:19;;;;;;;;;;;;;;;10.88;67.74;96410.66;5093380;28;19928;-54
2023/03/09 12:03:48;;;;;;;;;;;;;;;10.89;67.45;96423.91;5077013;28;19925;-55
2023/03/09 12:06:25;;;;;;;;;;;;;;;10.91;68.46;96420.81;5088511;28;19924;-54
2023/03/09 12:08:53;;;;;;;;;;;;;;;10.93;68.40;96415.84;5085654;28;19923;-54
2023/03/09 12:11:22;;;;;;;;;;;;;;;10.98;67.75;96429.19;5080453;28;19931;-57
2023/03/09 12:13:50;;;;;;;;;;;;;;;10.98;67.15;96412.88;5090165;28;20077;-55
2023/03/09 12:16:22;;;;;;;;;;;;;;;11.00;67.30;96422.22;5084628;28;19928;-54
2023/03/09 12:18:55;;;;;;;;;;;;;;;10.97;67.73;96424.84;5089044;28;19946;-58
2023/03/09 12:21:28;;;;;;;;;;;;;;;11.08;67.17;96425.13;5095502;28;20316;-59
2023/03/09 12:23:57;;;;;;;;;;;;;;;11.24;66.07;96421.28;5091572;28;19924;-56
2023/03/09 12:26:30;;;;;;;;;;;;;;;11.32;66.02;96435.84;5092671;28;19931;-54
2023/03/09 12:28:59;;;;;;;;;;;;;;;11.31;65.80;96417.16;5095158;28;19924;-62
2023/03/09 12:31:32;;;;;;;;;;;;;;;11.36;65.31;96425.84;5079601;28;19924;-55
2023/03/09 12:34:05;;;;;;;;;;;;;;;11.52;64.79;96429.31;5085102;28;19937;-56
2023/03/09 12:36:34;;;;;;;;;;;;;;;11.53;64.36;96430.09;5085518;28;19935;-63
2023/03/09 12:39:20;;;;;;;;;;;;;;;11.48;64.21;96438.53;5096132;28;19924;-56
2023/03/09 12:41:56;;;;;;;;;;;;;;;11.39;64.89;96427.03;5095550;28;20284;-54
2023/03/09 12:44:45;;;;;;;;;;;;;;;11.34;64.81;96447.13;5096232;28;20403;-56
2023/03/09 12:47:22;;;;;;;;;;;;;;;11.32;64.99;96435.84;5062862;28;19932;-56
2023/03/09 12:49:50;;;;;;;;;;;;;;;11.20;64.79;96439.44;5095071;28;19958;-57
2023/03/09 12:52:23;;;;;;;;;;;;;;;11.32;65.74;96446.69;5093410;28;19939;-55
2023/03/09 12:54:54;;;;;;;;;;;;;;;11.41;65.02;96436.44;5095074;28;19942;-58
2023/03/09 12:57:24;;;;;;;;;;;;;;;11.46;65.08;96436.19;5084541;28;19939;-56
2023/03/09 12:59:52;;;;;;;;;;;;;;;11.44;64.33;96438.44;5072070;28;19963;-55
2023/03/09 13:02:29;;;;;;;;;;;;;;;11.33;65.10;96442.84;5083854;28;19928;-56
2023/03/09 13:05:16;;;;;;;;;;;;;;;11.34;65.69;96441.69;5084067;28;19924;-56
2023/03/09 13:07:44;;;;;;;;;;;;;;;11.44;65.30;96435.72;5075523;28;19931;-57
2023/03/09 13:10:19;;;;;;;;;;;;;;;11.45;66.12;96436.50;5077098;28;19979;-58